createdAt,value
2018-08-24T00:00:05.008Z,0.00
2018-08-24T00:01:05.007Z,0.00
2018-08-24T00:02:05.005Z,0.00
2018-08-24T00:03:05.005Z,0.00
2018-08-24T00:04:04.999Z,0.00
2018-08-24T00:05:04.997Z,0.00
2018-08-24T00:06:04.997Z,0.00
2018-08-24T00:07:04.995Z,0.00
2018-08-24T00:08:04.991Z,0.00
2018-08-24T00:09:04.986Z,0.00
2018-08-24T00:10:04.993Z,0.00
2018-08-24T00:11:04.980Z,0.00
2018-08-24T00:12:04.979Z,0.00
2018-08-24T00:13:04.981Z,0.00
2018-08-24T00:14:04.976Z,0.00
2018-08-24T00:15:04.974Z,0.00
2018-08-24T00:16:04.974Z,0.00
2018-08-24T00:17:04.967Z,0.00
2018-08-24T00:18:04.965Z,0.00
2018-08-24T00:19:04.964Z,0.00
2018-08-24T00:20:04.960Z,0.00
2018-08-24T00:21:04.957Z,0.00
2018-08-24T00:22:04.957Z,0.00
2018-08-24T00:23:04.956Z,0.00
2018-08-24T00:24:04.955Z,0.00
2018-08-24T00:25:04.953Z,0.00
2018-08-24T00:26:04.948Z,0.00
2018-08-24T00:27:04.958Z,0.00
2018-08-24T00:28:04.941Z,0.00
2018-08-24T00:29:04.944Z,0.00
2018-08-24T00:30:04.947Z,0.00
2018-08-24T00:31:04.938Z,0.00
2018-08-24T00:32:04.938Z,0.00
2018-08-24T00:33:04.930Z,0.00
2018-08-24T00:34:04.929Z,0.00
2018-08-24T00:35:04.932Z,0.00
2018-08-24T00:36:04.924Z,0.00
2018-08-24T00:37:04.918Z,0.00
2018-08-24T00:38:04.923Z,0.00
2018-08-24T00:39:04.928Z,0.00
2018-08-24T00:40:04.913Z,0.00
2018-08-24T00:41:04.916Z,0.00
2018-08-24T00:42:04.911Z,0.00
2018-08-24T00:43:04.931Z,0.00
2018-08-24T00:44:04.903Z,0.00
2018-08-24T00:45:04.909Z,0.00
2018-08-24T00:46:04.901Z,0.00
2018-08-24T00:47:04.892Z,0.00
2018-08-24T00:48:04.896Z,0.00
2018-08-24T00:49:04.892Z,0.00
2018-08-24T00:50:04.891Z,0.00
2018-08-24T00:51:04.889Z,0.00
2018-08-24T00:52:04.883Z,0.00
2018-08-24T00:53:04.883Z,0.00
2018-08-24T00:54:04.882Z,0.00
2018-08-24T00:55:04.879Z,0.00
2018-08-24T00:56:04.880Z,0.00
2018-08-24T00:57:04.873Z,0.00
2018-08-24T00:58:04.873Z,0.00
2018-08-24T00:59:04.867Z,0.00
2018-08-24T01:00:04.866Z,0.00
2018-08-24T01:01:04.865Z,0.00
2018-08-24T01:02:04.896Z,0.00
2018-08-24T01:03:04.859Z,0.00
2018-08-24T01:04:04.858Z,0.00
2018-08-24T01:05:04.851Z,0.00
2018-08-24T01:06:04.851Z,0.00
2018-08-24T01:07:04.849Z,0.00
2018-08-24T01:08:04.844Z,0.00
2018-08-24T01:09:04.846Z,0.00
2018-08-24T01:10:04.842Z,0.00
2018-08-24T01:11:04.839Z,0.00
2018-08-24T01:12:04.839Z,0.00
2018-08-24T01:13:04.837Z,0.00
2018-08-24T01:14:04.830Z,0.00
2018-08-24T01:15:04.829Z,0.00
2018-08-24T01:16:04.828Z,0.00
2018-08-24T01:17:04.823Z,0.00
2018-08-24T01:18:04.823Z,0.00
2018-08-24T01:19:04.818Z,0.00
2018-08-24T01:20:04.819Z,0.00
2018-08-24T01:21:04.818Z,0.00
2018-08-24T01:22:04.814Z,0.00
2018-08-24T01:23:04.809Z,0.00
2018-08-24T01:24:04.805Z,0.00
2018-08-24T01:25:04.805Z,0.00
2018-08-24T01:26:04.803Z,0.00
2018-08-24T01:27:04.799Z,0.00
2018-08-24T01:28:04.798Z,0.00
2018-08-24T01:29:04.795Z,0.00
2018-08-24T01:30:04.793Z,0.00
2018-08-24T02:05:52.762Z,0.00
2018-08-24T02:06:52.730Z,0.00
2018-08-24T02:08:45.710Z,0.00
2018-08-24T02:09:45.696Z,0.00
2018-08-24T02:11:38.692Z,0.00
2018-08-24T02:12:38.663Z,0.00
2018-08-24T02:14:31.689Z,0.00
2018-08-24T02:15:31.595Z,0.00
2018-08-24T02:17:24.585Z,0.00
2018-08-24T02:18:24.571Z,0.00
2018-08-24T02:20:17.526Z,0.00
2018-08-24T02:21:17.495Z,0.00
2018-08-24T02:23:10.498Z,0.00
2018-08-24T02:24:10.485Z,0.00
2018-08-24T02:26:03.426Z,0.00
2018-08-24T02:27:03.385Z,0.00
2018-08-24T02:28:56.411Z,0.00
2018-08-24T02:29:56.393Z,0.00
2018-08-24T02:31:49.334Z,0.00
2018-08-24T02:32:49.295Z,0.00
2018-08-24T02:34:42.278Z,0.00
2018-08-24T02:35:42.259Z,0.00
2018-08-24T02:37:35.165Z,0.00
2018-08-24T02:38:35.156Z,0.00
2018-08-24T02:40:28.142Z,0.00
2018-08-24T02:41:28.152Z,0.00
2018-08-24T02:42:28.154Z,0.00
2018-08-24T02:43:28.151Z,0.00
2018-08-24T02:44:28.113Z,0.00
2018-08-24T02:45:28.109Z,0.00
2018-08-24T02:46:28.106Z,0.00
2018-08-24T02:47:28.101Z,0.00
2018-08-24T02:48:28.099Z,0.00
2018-08-24T02:49:28.094Z,0.00
2018-08-24T02:50:28.094Z,0.00
2018-08-24T02:51:28.100Z,0.00
2018-08-24T02:52:28.089Z,0.00
2018-08-24T02:53:28.086Z,0.00
2018-08-24T02:54:28.083Z,0.00
2018-08-24T02:55:28.084Z,0.00
2018-08-24T02:56:28.077Z,0.00
2018-08-24T02:57:28.074Z,0.00
2018-08-24T02:58:28.078Z,0.00
2018-08-24T02:59:28.082Z,0.00
2018-08-24T03:00:28.076Z,0.00
2018-08-24T03:01:28.068Z,0.00
2018-08-24T03:02:28.065Z,0.00
2018-08-24T03:03:28.059Z,0.00
2018-08-24T03:04:28.056Z,0.00
2018-08-24T03:05:28.169Z,0.00
2018-08-24T03:06:28.088Z,0.00
2018-08-24T03:07:28.108Z,0.00
2018-08-24T03:08:28.109Z,0.00
2018-08-24T03:09:28.044Z,0.00
2018-08-24T03:10:28.047Z,0.00
2018-08-24T03:11:28.039Z,0.00
2018-08-24T03:12:28.039Z,0.00
2018-08-24T03:13:28.033Z,0.00
2018-08-24T03:14:28.032Z,0.00
2018-08-24T03:15:28.047Z,0.00
2018-08-24T03:16:28.106Z,0.00
2018-08-24T03:17:28.027Z,0.00
2018-08-24T03:18:28.024Z,0.00
2018-08-24T03:19:28.022Z,0.00
2018-08-24T03:20:28.016Z,0.00
2018-08-24T03:21:28.117Z,0.00
2018-08-24T03:22:28.010Z,0.00
2018-08-24T03:23:28.009Z,0.00
2018-08-24T03:24:28.006Z,0.00
2018-08-24T03:25:28.011Z,0.00
2018-08-24T03:26:28.005Z,0.00
2018-08-24T03:27:28.000Z,0.00
2018-08-24T03:28:28.001Z,0.00
2018-08-24T03:29:27.991Z,0.00
2018-08-24T03:30:27.991Z,0.00
2018-08-24T03:31:27.990Z,0.00
2018-08-24T03:32:27.985Z,0.00
2018-08-24T03:33:27.985Z,0.00
2018-08-24T03:34:27.982Z,0.00
2018-08-24T03:35:27.978Z,0.00
2018-08-24T03:36:27.976Z,0.00
2018-08-24T03:37:27.975Z,0.00
2018-08-24T03:38:27.975Z,0.00
2018-08-24T03:39:27.971Z,0.00
2018-08-24T03:40:27.969Z,0.00
2018-08-24T03:41:27.964Z,0.00
2018-08-24T03:42:27.965Z,0.00
2018-08-24T03:43:27.959Z,0.00
2018-08-24T03:44:27.960Z,0.00
2018-08-24T03:45:27.954Z,0.00
2018-08-24T03:46:27.953Z,0.00
2018-08-24T03:47:27.946Z,0.00
2018-08-24T03:48:27.945Z,0.00
2018-08-24T03:49:27.944Z,0.00
2018-08-24T03:50:27.940Z,0.00
2018-08-24T03:51:27.944Z,0.00
2018-08-24T03:52:27.934Z,0.00
2018-08-24T03:53:27.936Z,0.00
2018-08-24T03:54:27.931Z,0.00
2018-08-24T03:55:27.930Z,0.00
2018-08-24T03:56:27.931Z,0.00
2018-08-24T03:57:27.924Z,0.00
2018-08-24T03:58:27.920Z,4.00
2018-08-24T03:59:27.917Z,4.00
2018-08-24T04:00:27.918Z,4.00
2018-08-24T04:01:27.915Z,4.00
2018-08-24T04:02:27.910Z,4.00
2018-08-24T04:03:27.910Z,4.00
2018-08-24T04:04:27.904Z,8.00
2018-08-24T04:05:27.903Z,8.00
2018-08-24T04:06:27.918Z,8.00
2018-08-24T04:07:27.897Z,12.00
2018-08-24T04:08:27.893Z,16.00
2018-08-24T04:09:27.888Z,16.00
2018-08-24T04:10:27.887Z,20.00
2018-08-24T04:11:27.885Z,28.00
2018-08-24T04:12:27.996Z,32.00
2018-08-24T04:13:27.896Z,44.00
2018-08-24T04:14:27.877Z,48.00
2018-08-24T04:15:27.876Z,56.00
2018-08-24T04:16:27.871Z,68.00
2018-08-24T04:17:27.875Z,80.00
2018-08-24T04:18:27.867Z,96.00
2018-08-24T04:19:27.995Z,112.00
2018-08-24T04:20:27.861Z,128.00
2018-08-24T04:21:27.859Z,152.00
2018-08-24T04:22:27.856Z,168.00
2018-08-24T04:23:27.858Z,192.00
2018-08-24T04:24:27.849Z,216.00
2018-08-24T04:25:27.848Z,240.00
2018-08-24T04:26:27.849Z,272.00
2018-08-24T04:27:27.839Z,280.00
2018-08-24T04:28:27.835Z,272.00
2018-08-24T04:29:27.835Z,324.00
2018-08-24T04:30:27.831Z,396.00
2018-08-24T04:31:27.831Z,524.00
2018-08-24T04:32:27.827Z,544.00
2018-08-24T04:33:27.827Z,640.00
2018-08-24T04:34:27.820Z,772.00
2018-08-24T04:35:27.819Z,744.00
2018-08-24T04:36:27.815Z,892.00
2018-08-24T04:37:27.814Z,952.00
2018-08-24T04:38:27.811Z,796.00
2018-08-24T04:39:27.807Z,1012.00
2018-08-24T04:40:27.947Z,1236.00
2018-08-24T04:41:27.817Z,1164.00
2018-08-24T04:42:27.800Z,1360.00
2018-08-24T04:43:27.794Z,1484.00
2018-08-24T04:44:27.794Z,1496.00
2018-08-24T04:45:27.849Z,1616.00
2018-08-24T04:46:27.789Z,1688.00
2018-08-24T04:47:27.789Z,1660.00
2018-08-24T04:48:27.787Z,1752.00
2018-08-24T04:49:27.775Z,1816.00
2018-08-24T04:50:27.781Z,1868.00
2018-08-24T04:51:27.864Z,1924.00
2018-08-24T04:52:27.775Z,1888.00
2018-08-24T04:53:27.770Z,2008.00
2018-08-24T04:54:27.772Z,2080.00
2018-08-24T04:55:27.769Z,2192.00
2018-08-24T04:56:27.768Z,2316.00
2018-08-24T04:57:27.774Z,2404.00
2018-08-24T04:58:27.759Z,2516.00
2018-08-24T04:59:27.758Z,2600.00
2018-08-24T05:00:27.756Z,2764.00
2018-08-24T05:01:27.749Z,2848.00
2018-08-24T05:02:27.755Z,2960.00
2018-08-24T05:03:27.749Z,3032.00
2018-08-24T05:04:27.745Z,3096.00
2018-08-24T05:05:27.745Z,3136.00
2018-08-24T05:06:27.746Z,3176.00
2018-08-24T05:07:27.736Z,3212.00
2018-08-24T05:08:27.737Z,3244.00
2018-08-24T05:09:27.732Z,3244.00
2018-08-24T05:10:27.730Z,3288.00
2018-08-24T05:11:27.727Z,3372.00
2018-08-24T05:12:27.723Z,3368.00
2018-08-24T05:13:27.719Z,3444.00
2018-08-24T05:14:27.721Z,3464.00
2018-08-24T05:15:27.720Z,3480.00
2018-08-24T05:16:27.719Z,3516.00
2018-08-24T05:17:27.716Z,3568.00
2018-08-24T05:18:27.711Z,3616.00
2018-08-24T05:19:27.714Z,3660.00
2018-08-24T05:20:27.706Z,3672.00
2018-08-24T05:21:27.793Z,3628.00
2018-08-24T05:22:27.703Z,3540.00
2018-08-24T05:23:27.701Z,3464.00
2018-08-24T05:24:27.695Z,3380.00
2018-08-24T05:25:27.694Z,3296.00
2018-08-24T05:26:27.695Z,3200.00
2018-08-24T05:27:27.689Z,3084.00
2018-08-24T05:28:27.689Z,2976.00
2018-08-24T05:29:27.686Z,2948.00
2018-08-24T05:30:27.684Z,2960.00
2018-08-24T05:31:27.679Z,2960.00
2018-08-24T05:32:27.683Z,2968.00
2018-08-24T05:33:27.678Z,2988.00
2018-08-24T05:34:27.673Z,3024.00
2018-08-24T05:35:27.706Z,3072.00
2018-08-24T05:36:27.671Z,3136.00
2018-08-24T05:37:27.668Z,3220.00
2018-08-24T05:38:27.665Z,3360.00
2018-08-24T05:39:27.661Z,3516.00
2018-08-24T05:40:27.661Z,3612.00
2018-08-24T05:41:27.716Z,3624.00
2018-08-24T05:42:27.669Z,3612.00
2018-08-24T05:43:27.653Z,3648.00
2018-08-24T05:44:27.651Z,3752.00
2018-08-24T05:45:27.647Z,3876.00
2018-08-24T05:46:27.648Z,3952.00
2018-08-24T05:47:27.645Z,3968.00
2018-08-24T05:48:27.644Z,4128.00
2018-08-24T05:49:27.644Z,4372.00
2018-08-24T05:50:27.645Z,4668.00
2018-08-24T05:51:27.636Z,5056.00
2018-08-24T05:52:27.656Z,5304.00
2018-08-24T05:53:27.628Z,5592.00
2018-08-24T05:54:27.628Z,5812.00
2018-08-24T05:55:27.623Z,6128.00
2018-08-24T05:56:27.646Z,6472.00
2018-08-24T05:57:27.624Z,6876.00
2018-08-24T05:58:27.619Z,7304.00
2018-08-24T05:59:27.622Z,7648.00
2018-08-24T06:00:27.615Z,7520.00
2018-08-24T06:01:27.616Z,7572.00
2018-08-24T06:02:27.611Z,7500.00
2018-08-24T06:03:27.607Z,7080.00
2018-08-24T06:04:27.605Z,6516.00
2018-08-24T06:05:27.610Z,5952.00
2018-08-24T06:06:27.607Z,5884.00
2018-08-24T06:07:27.601Z,5928.00
2018-08-24T06:08:27.627Z,5924.00
2018-08-24T06:09:27.598Z,5724.00
2018-08-24T06:10:27.599Z,5320.00
2018-08-24T06:11:27.595Z,4908.00
2018-08-24T06:12:27.597Z,4484.00
2018-08-24T06:13:27.590Z,3944.00
2018-08-24T06:14:27.588Z,3512.00
2018-08-24T06:15:27.588Z,3328.00
2018-08-24T06:16:27.594Z,3372.00
2018-08-24T06:17:27.586Z,3552.00
2018-08-24T06:18:27.587Z,3796.00
2018-08-24T06:19:27.581Z,4076.00
2018-08-24T06:20:27.580Z,4320.00
2018-08-24T06:21:27.580Z,4376.00
2018-08-24T06:22:27.578Z,4464.00
2018-08-24T06:23:27.576Z,4640.00
2018-08-24T06:24:27.637Z,4888.00
2018-08-24T06:25:27.573Z,4936.00
2018-08-24T06:26:27.573Z,4688.00
2018-08-24T06:27:27.567Z,4372.00
2018-08-24T06:28:27.567Z,4096.00
2018-08-24T06:29:27.564Z,3944.00
2018-08-24T06:30:27.565Z,4036.00
2018-08-24T06:31:27.557Z,3936.00
2018-08-24T06:32:27.559Z,3980.00
2018-08-24T06:33:27.558Z,3992.00
2018-08-24T06:34:27.555Z,4156.00
2018-08-24T06:35:27.551Z,4252.00
2018-08-24T06:36:27.557Z,4556.00
2018-08-24T06:37:27.546Z,5072.00
2018-08-24T06:38:27.547Z,5476.00
2018-08-24T06:39:27.547Z,5652.00
2018-08-24T06:40:27.542Z,5628.00
2018-08-24T06:41:27.543Z,5584.00
2018-08-24T06:42:27.545Z,5824.00
2018-08-24T06:43:27.536Z,6260.00
2018-08-24T06:44:27.532Z,6528.00
2018-08-24T06:45:27.535Z,6516.00
2018-08-24T06:46:27.529Z,7472.00
2018-08-24T06:47:27.606Z,7932.00
2018-08-24T06:48:27.540Z,8408.00
2018-08-24T06:49:27.524Z,8652.00
2018-08-24T06:50:27.520Z,8716.00
2018-08-24T06:51:27.520Z,9060.00
2018-08-24T06:52:27.516Z,9200.00
2018-08-24T06:53:27.591Z,8980.00
2018-08-24T06:54:27.514Z,8612.00
2018-08-24T06:55:27.518Z,8668.00
2018-08-24T06:56:27.516Z,8788.00
2018-08-24T06:57:27.511Z,8312.00
2018-08-24T06:58:27.514Z,8484.00
2018-08-24T06:59:27.557Z,8188.00
2018-08-24T07:00:27.505Z,7796.00
2018-08-24T07:01:27.507Z,7616.00
2018-08-24T07:02:27.501Z,7604.00
2018-08-24T07:03:27.509Z,7824.00
2018-08-24T07:04:27.500Z,8308.00
2018-08-24T07:05:27.499Z,9004.00
2018-08-24T07:06:27.501Z,9980.00
2018-08-24T07:07:27.498Z,10756.00
2018-08-24T07:08:27.495Z,11396.00
2018-08-24T07:09:27.496Z,12016.00
2018-08-24T07:10:27.509Z,12748.00
2018-08-24T07:11:27.504Z,13772.00
2018-08-24T07:12:27.501Z,15088.00
2018-08-24T07:13:27.508Z,15960.00
2018-08-24T07:14:27.502Z,19456.00
2018-08-24T07:15:27.509Z,21216.00
2018-08-24T07:16:27.498Z,23008.00
2018-08-24T07:17:27.504Z,24192.00
2018-08-24T07:18:27.485Z,24576.00
2018-08-24T07:19:27.485Z,24864.00
2018-08-24T07:20:27.481Z,25472.00
2018-08-24T07:21:27.491Z,25952.00
2018-08-24T07:22:27.480Z,25472.00
2018-08-24T07:23:27.489Z,25056.00
2018-08-24T07:24:27.482Z,24608.00
2018-08-24T07:25:27.517Z,23936.00
2018-08-24T07:26:27.488Z,25408.00
2018-08-24T07:27:27.490Z,32384.00
2018-08-24T07:28:27.519Z,34720.00
2018-08-24T07:29:27.527Z,29120.00
2018-08-24T07:30:27.520Z,38912.00
2018-08-24T07:31:27.526Z,39936.00
2018-08-24T07:32:27.525Z,37440.00
2018-08-24T07:33:27.528Z,29440.00
2018-08-24T07:34:27.526Z,26176.00
2018-08-24T07:35:27.501Z,25952.00
2018-08-24T07:36:27.508Z,26304.00
2018-08-24T07:37:27.513Z,26752.00
2018-08-24T07:38:27.519Z,25792.00
2018-08-24T07:39:27.515Z,21856.00
2018-08-24T07:40:27.522Z,21056.00
2018-08-24T07:41:27.579Z,15200.00
2018-08-24T07:42:27.529Z,17632.00
2018-08-24T07:43:27.530Z,14380.00
2018-08-24T07:44:27.538Z,18816.00
2018-08-24T07:45:27.539Z,22016.00
2018-08-24T07:46:27.542Z,26592.00
2018-08-24T07:47:27.544Z,40032.00
2018-08-24T07:48:27.547Z,42400.00
2018-08-24T07:49:27.553Z,44576.00
2018-08-24T07:50:27.554Z,52096.00
2018-08-24T07:51:27.577Z,41408.00
2018-08-24T07:52:27.567Z,45024.00
2018-08-24T07:53:27.562Z,39712.00
2018-08-24T07:54:27.571Z,40352.00
2018-08-24T07:55:27.570Z,34848.00
2018-08-24T07:56:27.576Z,26560.00
2018-08-24T07:57:27.585Z,25248.00
2018-08-24T07:58:27.590Z,24608.00
2018-08-24T07:59:27.607Z,23296.00
2018-08-24T08:00:27.600Z,21952.00
2018-08-24T08:01:27.602Z,20640.00
2018-08-24T08:02:27.613Z,19712.00
2018-08-24T08:03:27.623Z,19136.00
2018-08-24T08:04:27.623Z,18720.00
2018-08-24T08:05:27.752Z,19232.00
2018-08-24T08:06:27.629Z,20384.00
2018-08-24T08:07:27.633Z,20896.00
2018-08-24T08:08:27.636Z,20928.00
2018-08-24T08:09:27.640Z,17184.00
2018-08-24T08:10:27.650Z,20960.00
2018-08-24T08:11:27.651Z,24032.00
2018-08-24T08:12:27.660Z,23840.00
2018-08-24T08:13:27.661Z,20736.00
2018-08-24T08:14:27.662Z,22912.00
2018-08-24T08:15:27.664Z,24928.00
2018-08-24T08:16:27.668Z,25760.00
2018-08-24T08:17:27.671Z,26176.00
2018-08-24T08:18:27.678Z,27008.00
2018-08-24T08:19:27.679Z,29376.00
2018-08-24T08:20:27.683Z,30368.00
2018-08-24T08:21:27.685Z,29920.00
2018-08-24T08:22:27.690Z,28768.00
2018-08-24T08:23:27.692Z,26400.00
2018-08-24T08:24:27.700Z,23776.00
2018-08-24T08:25:27.705Z,21664.00
2018-08-24T08:26:27.704Z,23008.00
2018-08-24T08:27:27.705Z,21056.00
2018-08-24T08:28:27.708Z,18336.00
2018-08-24T08:29:27.721Z,20960.00
2018-08-24T08:30:27.718Z,19776.00
2018-08-24T08:31:27.719Z,17020.00
2018-08-24T08:32:27.738Z,18272.00
2018-08-24T08:33:27.731Z,17920.00
2018-08-24T08:34:27.729Z,14308.00
2018-08-24T08:35:27.736Z,13152.00
2018-08-24T08:36:27.825Z,15772.00
2018-08-24T08:37:27.751Z,17824.00
2018-08-24T08:38:27.744Z,14564.00
2018-08-24T08:39:27.749Z,16056.00
2018-08-24T08:40:27.749Z,15464.00
2018-08-24T08:41:27.754Z,13832.00
2018-08-24T08:42:27.758Z,18336.00
2018-08-24T08:43:27.759Z,20672.00
2018-08-24T08:44:27.764Z,25696.00
2018-08-24T08:45:27.834Z,30016.00
2018-08-24T08:46:27.816Z,24768.00
2018-08-24T08:47:27.771Z,23904.00
2018-08-24T08:48:27.767Z,26208.00
2018-08-24T08:49:27.775Z,22848.00
2018-08-24T08:50:27.780Z,18976.00
2018-08-24T08:51:27.783Z,20352.00
2018-08-24T08:52:27.791Z,20992.00
2018-08-24T08:53:27.826Z,22528.00
2018-08-24T08:54:27.791Z,22112.00
2018-08-24T08:55:27.792Z,17856.00
2018-08-24T08:56:27.799Z,16140.00
2018-08-24T08:57:27.797Z,20704.00
2018-08-24T08:58:27.852Z,20672.00
2018-08-24T08:59:27.802Z,20512.00
2018-08-24T09:00:27.809Z,22208.00
2018-08-24T09:01:27.811Z,18656.00
2018-08-24T09:02:27.815Z,18080.00
2018-08-24T09:03:27.817Z,15300.00
2018-08-24T09:04:27.823Z,12600.00
2018-08-24T09:05:27.843Z,14608.00
2018-08-24T09:06:27.924Z,10364.00
2018-08-24T09:07:27.831Z,7656.00
2018-08-24T09:08:27.832Z,8460.00
2018-08-24T09:09:27.831Z,10768.00
2018-08-24T09:10:27.841Z,10224.00
2018-08-24T09:11:27.839Z,7980.00
2018-08-24T09:12:27.841Z,9192.00
2018-08-24T09:13:27.841Z,10924.00
2018-08-24T09:14:27.848Z,8804.00
2018-08-24T09:15:27.847Z,7032.00
2018-08-24T09:16:27.848Z,11388.00
2018-08-24T09:17:27.850Z,16960.00
2018-08-24T09:18:27.920Z,16908.00
2018-08-24T09:19:27.850Z,13460.00
2018-08-24T09:20:27.855Z,9592.00
2018-08-24T09:21:27.856Z,10116.00
2018-08-24T09:22:27.861Z,7496.00
2018-08-24T09:23:27.857Z,7636.00
2018-08-24T09:24:27.865Z,8036.00
2018-08-24T09:25:27.966Z,9116.00
2018-08-24T09:26:27.864Z,9964.00
2018-08-24T09:27:27.863Z,13712.00
2018-08-24T09:28:27.871Z,17888.00
2018-08-24T09:29:27.867Z,12460.00
2018-08-24T09:30:27.867Z,8412.00
2018-08-24T09:31:27.869Z,6008.00
2018-08-24T09:32:27.916Z,8380.00
2018-08-24T09:33:27.876Z,10924.00
2018-08-24T09:34:27.875Z,12636.00
2018-08-24T09:35:27.875Z,11660.00
2018-08-24T09:36:27.877Z,9468.00
2018-08-24T09:37:27.878Z,10124.00
2018-08-24T09:38:27.879Z,5500.00
2018-08-24T09:39:27.879Z,5144.00
2018-08-24T09:40:27.877Z,5452.00
2018-08-24T09:41:27.880Z,5752.00
2018-08-24T09:42:27.881Z,6660.00
2018-08-24T09:43:27.886Z,14984.00
2018-08-24T09:44:27.881Z,10408.00
2018-08-24T09:45:27.881Z,10036.00
2018-08-24T09:46:27.885Z,11676.00
2018-08-24T09:47:27.883Z,13760.00
2018-08-24T09:48:27.886Z,31264.00
2018-08-24T09:49:27.887Z,41568.00
2018-08-24T09:50:27.891Z,36448.00
2018-08-24T09:51:27.887Z,40768.00
2018-08-24T09:52:27.889Z,42880.00
2018-08-24T09:53:27.893Z,34048.00
2018-08-24T09:54:27.894Z,49600.00
2018-08-24T09:55:27.898Z,33024.00
2018-08-24T09:56:27.902Z,20416.00
2018-08-24T09:57:27.907Z,83456.00
2018-08-24T09:58:27.908Z,75776.00
2018-08-24T09:59:27.911Z,40384.00
2018-08-24T10:00:27.921Z,27552.00
2018-08-24T10:01:27.924Z,76288.00
2018-08-24T10:02:27.933Z,42464.00
2018-08-24T10:03:27.937Z,45280.00
2018-08-24T10:04:27.953Z,42592.00
2018-08-24T10:05:27.954Z,67296.00
2018-08-24T10:06:28.047Z,92448.00
2018-08-24T10:07:27.972Z,88128.00
2018-08-24T10:08:27.975Z,66496.00
2018-08-24T10:09:27.972Z,52320.00
2018-08-24T10:10:27.990Z,55488.00
2018-08-24T10:11:28.001Z,72640.00
2018-08-24T10:12:28.010Z,49856.00
2018-08-24T10:13:28.083Z,21632.00
2018-08-24T10:14:28.031Z,21696.00
2018-08-24T10:15:28.038Z,37856.00
2018-08-24T10:16:28.050Z,33984.00
2018-08-24T10:17:28.057Z,68736.00
2018-08-24T10:18:28.064Z,39776.00
2018-08-24T10:19:28.086Z,53056.00
2018-08-24T10:20:28.088Z,41920.00
2018-08-24T10:21:28.093Z,40512.00
2018-08-24T10:22:28.107Z,41664.00
2018-08-24T10:23:28.110Z,49024.00
2018-08-24T10:24:28.125Z,34528.00
2018-08-24T10:25:28.127Z,42272.00
2018-08-24T10:26:28.147Z,65728.00
2018-08-24T10:27:28.144Z,51008.00
2018-08-24T10:28:28.154Z,63040.00
2018-08-24T10:29:28.291Z,73408.00
2018-08-24T10:30:28.170Z,83200.00
2018-08-24T10:31:28.182Z,78528.00
2018-08-24T10:32:28.192Z,84544.00
2018-08-24T10:33:28.199Z,78112.00
2018-08-24T10:34:28.222Z,76832.00
2018-08-24T10:35:28.222Z,55584.00
2018-08-24T10:36:28.230Z,70752.00
2018-08-24T10:37:28.239Z,73408.00
2018-08-24T10:38:28.253Z,70752.00
2018-08-24T10:39:28.265Z,64960.00
2018-08-24T10:40:28.275Z,64224.00
2018-08-24T10:41:28.289Z,66368.00
2018-08-24T10:42:28.299Z,69024.00
2018-08-24T10:43:28.353Z,65312.00
2018-08-24T10:44:28.324Z,70752.00
2018-08-24T10:45:28.339Z,67840.00
2018-08-24T10:46:28.349Z,77056.00
2018-08-24T10:47:28.451Z,75072.00
2018-08-24T10:48:28.375Z,68288.00
2018-08-24T10:49:28.405Z,74400.00
2018-08-24T10:50:28.398Z,68896.00
2018-08-24T10:51:28.463Z,71872.00
2018-08-24T10:52:28.425Z,72736.00
2018-08-24T10:53:28.435Z,65248.00
2018-08-24T10:54:28.451Z,71456.00
2018-08-24T10:55:28.463Z,69056.00
2018-08-24T10:56:28.524Z,67104.00
2018-08-24T10:57:28.573Z,54912.00
2018-08-24T10:58:28.548Z,58016.00
2018-08-24T10:59:28.517Z,49184.00
2018-08-24T11:00:28.577Z,49056.00
2018-08-24T11:01:28.575Z,66464.00
2018-08-24T11:02:28.584Z,68384.00
2018-08-24T11:03:28.577Z,55904.00
2018-08-24T11:04:28.631Z,72064.00
2018-08-24T11:05:28.713Z,33760.00
2018-08-24T11:06:28.621Z,61504.00
2018-08-24T11:07:28.809Z,72576.00
2018-08-24T11:08:28.640Z,74688.00
2018-08-24T11:09:28.666Z,74144.00
2018-08-24T11:10:28.668Z,71264.00
2018-08-24T11:11:28.701Z,72000.00
2018-08-24T11:12:28.695Z,72224.00
2018-08-24T11:13:28.710Z,74464.00
2018-08-24T11:14:28.720Z,74208.00
2018-08-24T11:15:28.744Z,72608.00
2018-08-24T11:16:28.747Z,72512.00
2018-08-24T11:17:28.763Z,73248.00
2018-08-24T11:18:28.782Z,72832.00
2018-08-24T11:19:29.267Z,72544.00
2018-08-24T11:20:28.898Z,72000.00
2018-08-24T11:21:28.902Z,71072.00
2018-08-24T11:22:28.829Z,74304.00
2018-08-24T11:23:28.846Z,77408.00
2018-08-24T11:24:28.863Z,77056.00
2018-08-24T11:25:28.873Z,77440.00
2018-08-24T11:26:28.910Z,77984.00
2018-08-24T11:27:28.900Z,76704.00
2018-08-24T11:28:28.937Z,73472.00
2018-08-24T11:29:28.980Z,73248.00
2018-08-24T11:30:28.938Z,73440.00
2018-08-24T11:31:28.951Z,72544.00
2018-08-24T11:32:29.014Z,72960.00
2018-08-24T11:33:29.027Z,77024.00
2018-08-24T11:34:29.030Z,75552.00
2018-08-24T11:35:29.062Z,75808.00
2018-08-24T11:36:29.135Z,80416.00
2018-08-24T11:37:29.047Z,75008.00
2018-08-24T11:38:29.100Z,74784.00
2018-08-24T11:39:29.074Z,78624.00
2018-08-24T11:40:29.086Z,79840.00
2018-08-24T11:41:29.100Z,77952.00
2018-08-24T11:42:29.119Z,76000.00
2018-08-24T11:43:29.130Z,75424.00
2018-08-24T11:44:29.143Z,75456.00
2018-08-24T11:45:29.158Z,72640.00
2018-08-24T11:46:29.183Z,76736.00
2018-08-24T11:47:29.187Z,76384.00
2018-08-24T11:48:29.200Z,76768.00
2018-08-24T11:49:29.222Z,77120.00
2018-08-24T11:50:29.228Z,72032.00
2018-08-24T11:51:29.242Z,64384.00
2018-08-24T11:52:29.258Z,72832.00
2018-08-24T11:53:29.294Z,78560.00
2018-08-24T11:54:29.354Z,81536.00
2018-08-24T11:55:29.297Z,77056.00
2018-08-24T11:56:29.311Z,74528.00
2018-08-24T11:57:29.317Z,74848.00
2018-08-24T11:58:29.344Z,70016.00
2018-08-24T11:59:29.352Z,60640.00
2018-08-24T12:00:29.371Z,57952.00
2018-08-24T12:01:29.384Z,56832.00
2018-08-24T12:02:29.400Z,61472.00
2018-08-24T12:03:29.413Z,61440.00
2018-08-24T12:04:29.429Z,60576.00
2018-08-24T12:05:29.441Z,64544.00
2018-08-24T12:06:29.449Z,68672.00
2018-08-24T12:07:29.460Z,73664.00
2018-08-24T12:08:29.574Z,73600.00
2018-08-24T12:09:29.489Z,72448.00
2018-08-24T12:10:29.504Z,66976.00
2018-08-24T12:11:29.514Z,63968.00
2018-08-24T12:12:29.578Z,62656.00
2018-08-24T12:13:29.542Z,66368.00
2018-08-24T12:14:29.563Z,69888.00
2018-08-24T12:15:29.589Z,62400.00
2018-08-24T12:16:29.585Z,58048.00
2018-08-24T12:17:29.597Z,61632.00
2018-08-24T12:18:29.692Z,32448.00
2018-08-24T12:19:29.620Z,66272.00
2018-08-24T12:20:29.635Z,68256.00
2018-08-24T12:21:29.660Z,65632.00
2018-08-24T12:22:29.659Z,61024.00
2018-08-24T12:23:29.681Z,61408.00
2018-08-24T12:24:29.693Z,63904.00
2018-08-24T12:25:29.700Z,61568.00
2018-08-24T12:26:29.713Z,61344.00
2018-08-24T12:27:29.773Z,50080.00
2018-08-24T12:28:29.748Z,21568.00
2018-08-24T12:29:29.753Z,22432.00
2018-08-24T12:30:29.766Z,18752.00
2018-08-24T12:31:29.773Z,19328.00
2018-08-24T12:32:29.859Z,23616.00
2018-08-24T12:33:29.797Z,25856.00
2018-08-24T12:34:29.808Z,23040.00
2018-08-24T12:35:29.813Z,23264.00
2018-08-24T12:36:29.836Z,23520.00
2018-08-24T12:37:29.833Z,20000.00
2018-08-24T12:38:29.852Z,17720.00
2018-08-24T12:39:29.853Z,19936.00
2018-08-24T12:40:29.860Z,22048.00
2018-08-24T12:41:29.867Z,19648.00
2018-08-24T12:42:29.879Z,17628.00
2018-08-24T12:43:29.947Z,20864.00
2018-08-24T12:44:29.890Z,22368.00
2018-08-24T12:45:29.901Z,22336.00
2018-08-24T12:46:29.908Z,19968.00
2018-08-24T12:47:29.915Z,21440.00
2018-08-24T12:48:29.923Z,22304.00
2018-08-24T12:49:30.019Z,21248.00
2018-08-24T12:50:29.940Z,20480.00
2018-08-24T12:51:29.941Z,20032.00
2018-08-24T12:52:29.950Z,20416.00
2018-08-24T12:53:29.966Z,20544.00
2018-08-24T12:54:29.963Z,20576.00
2018-08-24T12:55:29.969Z,20768.00
2018-08-24T12:56:29.975Z,20448.00
2018-08-24T12:57:30.001Z,20960.00
2018-08-24T12:58:29.990Z,22464.00
2018-08-24T12:59:29.993Z,21760.00
2018-08-24T13:00:29.998Z,22752.00